Time;durP1;ratioP1;P1;durP2;ratioP2;P2;SDS_P1;SDS_P2;PMS_P1;PMS_P2;Temp;Humidity;BMP_temperature;BMP_pressure;BME280_temperature;BME280_humidity;BME280_pressure;Samples;Min_cycle;Max_cycle;Signal;HPM_P1;HPM_P2
2021/03/30 00:00:14;;;;;;;9.55;6.15;;;;;;;3.99;59.29;102369.29;1770087;80;20919;-72
2021/03/30 00:02:42;;;;;;;13.15;6.55;;;;;;;3.94;58.60;102373.20;1769900;81;20942;-72
2021/03/30 00:05:12;;;;;;;10.75;6.25;;;;;;;3.90;58.71;102376.23;1770113;81;20943;-72
2021/03/30 00:07:41;;;;;;;10.25;6.45;;;;;;;3.91;58.20;102371.90;1769977;81;21455;-72
2021/03/30 00:10:14;;;;;;;16.57;6.22;;;;;;;3.90;57.98;102370.19;1769884;81;21451;-72
2021/03/30 00:12:41;;;;;;;12.63;6.42;;;;;;;3.88;57.88;102376.67;1770007;81;20935;-72
2021/03/30 00:15:12;;;;;;;13.20;6.00;;;;;;;3.87;58.09;102378.00;1769930;79;21476;-71
2021/03/30 00:17:41;;;;;;;12.33;6.10;;;;;;;3.87;57.89;102376.26;1769995;81;20978;-72
2021/03/30 00:20:14;;;;;;;15.28;6.85;;;;;;;3.85;57.86;102371.50;1769955;81;21864;-72
2021/03/30 00:22:43;;;;;;;18.33;6.77;;;;;;;3.86;57.84;102376.25;1770150;81;20970;-72
2021/03/30 00:25:13;;;;;;;10.25;6.00;;;;;;;3.84;57.85;102374.09;1769988;79;20946;-73
2021/03/30 00:27:41;;;;;;;9.55;6.78;;;;;;;3.80;57.75;102374.56;1769924;81;21014;-72
2021/03/30 00:30:11;;;;;;;14.58;7.12;;;;;;;3.79;57.66;102374.56;1769923;79;20951;-73
2021/03/30 00:32:39;;;;;;;14.18;6.83;;;;;;;3.77;57.85;102379.74;1770053;81;22288;-73
2021/03/30 00:35:07;;;;;;;10.85;6.80;;;;;;;3.76;57.90;102376.73;1769849;80;21058;-72
2021/03/30 00:37:36;;;;;;;12.80;6.53;;;;;;;3.74;57.90;102378.47;1776702;80;20994;-72
2021/03/30 00:40:08;;;;;;;14.25;6.87;;;;;;;3.71;58.11;102389.72;1778428;80;20959;-72
2021/03/30 00:42:37;;;;;;;13.72;7.83;;;;;;;3.68;58.21;102389.71;1778574;80;20931;-71
2021/03/30 00:45:07;;;;;;;12.07;7.22;;;;;;;3.66;58.46;102388.84;1778356;79;22076;-72
2021/03/30 00:47:38;;;;;;;11.97;6.85;;;;;;;3.63;58.68;102388.88;1778384;79;20947;-73
2021/03/30 00:50:07;;;;;;;10.78;6.30;;;;;;;3.61;58.88;102393.20;1778388;79;21033;-72
2021/03/30 00:52:37;;;;;;;15.15;6.90;;;;;;;3.55;58.92;102392.34;1778388;80;21002;-72
2021/03/30 00:55:20;;;;;;;10.90;6.25;;;;;;;3.53;59.19;102393.64;1778506;80;21006;-73
2021/03/30 00:57:49;;;;;;;11.43;6.10;;;;;;;3.49;59.23;102393.20;1753044;80;22107;-72
2021/03/30 01:00:18;;;;;;;9.28;5.45;;;;;;;3.45;59.25;102393.67;1778401;80;20997;-73
2021/03/30 01:02:47;;;;;;;8.53;5.28;;;;;;;3.40;59.61;102392.82;1778401;80;20934;-73
2021/03/30 01:05:16;;;;;;;10.95;6.92;;;;;;;3.36;60.85;102393.69;1752643;80;21006;-72
2021/03/30 01:08:01;;;;;;;17.23;8.90;;;;;;;3.30;61.35;102398.88;1778413;80;20887;-74
2021/03/30 01:10:53;;;;;;;13.68;7.70;;;;;;;3.20;61.34;102399.33;1778430;80;21468;-72
2021/03/30 01:13:51;;;;;;;13.05;8.93;;;;;;;3.09;61.46;102394.55;1778276;80;20974;-76
2021/03/30 01:16:42;;;;;;;17.37;10.75;;;;;;;2.97;61.66;102399.31;1778346;80;21423;-74
2021/03/30 01:19:57;;;;;;;16.70;10.08;;;;;;;2.87;62.23;102397.59;1752359;80;21575;-73
2021/03/30 01:23:08;;;;;;;21.75;11.68;;;;;;;2.80;62.25;102395.84;1778399;80;20963;-72
2021/03/30 01:25:39;;;;;;;18.82;10.60;;;;;;;2.70;62.65;102393.68;1778401;80;21801;-74
2021/03/30 01:28:22;;;;;;;20.97;12.70;;;;;;;2.60;62.84;102390.22;1778304;79;21519;-73
2021/03/30 01:30:51;;;;;;;22.27;12.33;;;;;;;2.54;62.88;102391.94;1778457;80;21025;-73
2021/03/30 01:33:23;;;;;;;19.32;10.70;;;;;;;2.43;63.51;102395.36;1752703;80;21018;-73
2021/03/30 01:35:53;;;;;;;16.77;10.80;;;;;;;2.33;63.79;102391.44;1778366;80;21400;-73
2021/03/30 01:38:22;;;;;;;13.53;8.90;;;;;;;2.20;64.02;102397.00;1772997;81;21358;-70
2021/03/30 01:40:54;;;;;;;18.82;10.23;;;;;;;2.05;64.25;102396.53;1772831;80;21014;-71
2021/03/30 01:43:23;;;;;;;18.25;11.88;;;;;;;1.92;64.69;102403.37;1772955;79;20944;-71
2021/03/30 01:45:56;;;;;;;22.27;12.00;;;;;;;1.81;64.85;102394.70;1745412;81;20940;-72
2021/03/30 01:48:24;;;;;;;24.80;12.80;;;;;;;1.73;65.09;102401.10;1772962;80;21070;-72
2021/03/30 01:50:54;;;;;;;27.32;12.28;;;;;;;1.66;65.40;102404.09;1772921;79;21368;-72
2021/03/30 01:53:23;;;;;;;23.12;12.82;;;;;;;1.64;65.59;102411.40;1772878;81;20947;-72
2021/03/30 01:55:53;;;;;;;16.07;11.28;;;;;;;1.64;66.00;102408.38;1772972;80;21477;-73
2021/03/30 01:58:22;;;;;;;16.75;10.75;;;;;;;1.61;66.17;102411.39;1773135;80;21010;-72
2021/03/30 02:00:51;;;;;;;22.60;12.85;;;;;;;1.56;66.38;102408.78;1773073;79;21006;-72
2021/03/30 02:03:19;;;;;;;36.05;16.60;;;;;;;1.53;66.46;102415.64;1773074;81;22430;-73
2021/03/30 02:05:47;;;;;;;32.00;16.30;;;;;;;1.50;66.54;102415.20;1773052;81;21510;-73
2021/03/30 02:08:15;;;;;;;22.65;12.70;;;;;;;1.47;66.61;102407.84;1745209;81;20962;-72
2021/03/30 02:10:49;;;;;;;27.58;13.10;;;;;;;1.42;66.69;102416.45;1773117;79;21473;-71
2021/03/30 02:13:24;;;;;;;23.75;13.68;;;;;;;1.39;66.89;102409.95;1773232;80;20920;-71
2021/03/30 02:15:57;;;;;;;31.48;16.02;;;;;;;1.34;66.92;102419.84;1773211;81;21806;-71
2021/03/30 02:18:42;;;;;;;32.58;14.55;;;;;;;1.35;67.11;102424.14;1847764;76;23320;-72
2021/03/30 02:21:13;;;;;;;31.27;15.23;;;;;;;1.22;67.25;102427.94;1818065;79;20931;-71
2021/03/30 02:23:42;;;;;;;24.45;12.63;;;;;;;1.19;67.35;102425.74;1818079;78;21425;-71
2021/03/30 02:26:10;;;;;;;40.88;20.52;;;;;;;1.15;67.54;102427.86;1817958;78;20903;-71
2021/03/30 02:28:45;;;;;;;58.10;25.60;;;;;;;1.12;67.66;102429.14;1818001;78;20942;-71
2021/03/30 02:31:10;;;;;;;37.25;21.15;;;;;;;1.09;67.61;102432.97;1817365;79;21002;-72
2021/03/30 02:33:38;;;;;;;55.73;24.55;;;;;;;1.05;67.63;102433.39;1786919;79;20970;-73
2021/03/30 02:36:07;;;;;;;44.48;23.50;;;;;;;0.98;67.75;102437.63;1817929;79;21188;-72
2021/03/30 02:38:35;;;;;;;39.30;21.02;;;;;;;0.94;67.91;102440.17;1817939;78;20939;-72
2021/03/30 02:41:04;;;;;;;23.75;14.10;;;;;;;0.91;68.04;102438.83;1787248;79;20938;-72
2021/03/30 02:43:34;;;;;;;25.57;13.93;;;;;;;0.85;67.96;102441.38;1817932;79;20911;-72
2021/03/30 02:46:03;;;;;;;27.30;14.60;;;;;;;0.80;67.96;102446.07;1817950;79;20930;-71
2021/03/30 02:48:32;;;;;;;22.20;12.80;;;;;;;0.74;68.15;102443.85;1818087;77;21326;-73
2021/03/30 02:51:04;;;;;;;25.20;12.95;;;;;;;0.71;68.32;102448.97;1817914;79;20962;-72
2021/03/30 02:53:33;;;;;;;25.32;13.35;;;;;;;0.67;68.49;102449.78;1787531;77;21334;-72
2021/03/30 02:56:03;;;;;;;23.85;14.05;;;;;;;0.66;68.67;102447.63;1817951;79;20927;-72
2021/03/30 02:58:33;;;;;;;23.83;13.28;;;;;;;0.65;68.80;102457.53;1787242;79;20935;-71
2021/03/30 03:01:02;;;;;;;30.70;15.13;;;;;;;0.66;68.78;102456.66;1818012;77;21471;-71
2021/03/30 03:03:31;;;;;;;23.10;13.13;;;;;;;0.67;68.83;102457.52;1817866;79;20899;-72
2021/03/30 03:06:00;;;;;;;26.15;13.28;;;;;;;0.67;68.87;102462.28;1817917;79;21006;-73
2021/03/30 03:08:29;;;;;;;27.15;13.65;;;;;;;0.67;69.03;102454.94;1817912;79;20935;-72
2021/03/30 03:10:59;;;;;;;39.08;16.82;;;;;;;0.64;69.16;102454.48;1818073;77;20986;-71
2021/03/30 03:13:29;;;;;;;51.55;18.32;;;;;;;0.64;69.07;102462.66;1787512;79;21423;-72
2021/03/30 03:15:58;;;;;;;54.88;21.52;;;;;;;0.62;69.25;102458.77;1817904;79;21006;-72
2021/03/30 03:18:26;;;;;;;36.85;17.20;;;;;;;0.61;69.15;102466.09;1817845;77;21037;-71
2021/03/30 03:20:55;;;;;;;61.95;24.63;;;;;;;0.58;69.29;102470.80;1817836;79;21012;-72
2021/03/30 03:23:24;;;;;;;41.65;18.77;;;;;;;0.57;69.10;102467.75;1787050;79;21341;-74
2021/03/30 03:25:53;;;;;;;45.38;18.92;;;;;;;0.57;69.36;102472.92;1817914;79;21812;-73
2021/03/30 03:28:21;;;;;;;42.58;18.40;;;;;;;0.58;69.21;102472.08;1817741;77;21340;-72
2021/03/30 03:30:49;;;;;;;25.40;12.82;;;;;;;0.56;69.30;102476.80;1817397;79;20906;-74
2021/03/30 03:33:17;;;;;;;25.43;13.20;;;;;;;0.53;69.79;102482.76;1817291;78;20978;-73
2021/03/30 03:36:09;;;;;;;19.20;11.03;;;;;;;0.51;70.08;102483.59;1817337;79;21006;-72
2021/03/30 03:38:39;;;;;;;16.10;9.73;;;;;;;0.54;70.33;102484.51;1817317;79;21378;-72
2021/03/30 03:41:09;;;;;;;15.93;9.65;;;;;;;0.59;70.69;102489.29;1817285;79;20978;-71
2021/03/30 03:43:36;;;;;;;15.05;8.70;;;;;;;0.69;70.87;102495.45;1817558;79;21014;-72
2021/03/30 03:46:05;;;;;;;14.85;8.60;;;;;;;0.75;70.87;102495.48;1817472;79;20914;-74
2021/03/30 03:48:33;;;;;;;17.37;9.63;;;;;;;0.85;70.71;102501.64;1817417;77;20930;-72
2021/03/30 03:51:03;;;;;;;13.72;9.40;;;;;;;0.94;70.68;102495.70;1817354;79;21772;-73
2021/03/30 03:53:35;;;;;;;13.53;9.88;;;;;;;1.01;70.56;102497.06;1817350;77;20939;-73
2021/03/30 03:56:04;;;;;;;16.50;10.30;;;;;;;1.13;70.62;102498.03;1817396;78;20927;-73
2021/03/30 03:58:42;;;;;;;20.23;10.65;;;;;;;1.23;70.18;102499.86;1817417;78;20911;-74
2021/03/30 04:01:15;;;;;;;16.10;10.10;;;;;;;1.32;69.87;102499.94;1818339;77;21302;-74
2021/03/30 04:03:53;;;;;;;15.35;9.70;;;;;;;1.41;69.61;102503.03;1817752;79;21352;-72
2021/03/30 04:06:22;;;;;;;15.78;9.00;;;;;;;1.48;69.52;102504.80;1817686;79;21345;-72
2021/03/30 04:08:55;;;;;;;17.95;9.20;;;;;;;1.62;69.28;102510.97;1817379;79;21365;-73
2021/03/30 04:11:23;;;;;;;22.40;10.18;;;;;;;1.80;69.14;102509.34;1817391;79;21361;-73
2021/03/30 04:13:52;;;;;;;22.70;11.22;;;;;;;1.98;68.55;102509.48;1817364;77;20919;-73
2021/03/30 04:16:20;;;;;;;27.60;13.93;;;;;;;2.18;67.91;102516.07;1817325;78;21366;-72
2021/03/30 04:18:49;;;;;;;24.27;12.37;;;;;;;2.38;67.24;102516.58;1817163;78;21002;-73
2021/03/30 04:21:25;;;;;;;23.30;11.25;;;;;;;2.53;66.76;102518.37;1817271;77;21081;-72
2021/03/30 04:23:53;;;;;;;25.20;11.55;;;;;;;2.60;66.53;102518.83;1815647;79;20934;-73
2021/03/30 04:26:21;;;;;;;18.98;11.65;;;;;;;2.70;66.29;102518.88;1817385;78;21464;-73
2021/03/30 04:28:50;;;;;;;17.50;10.68;;;;;;;2.81;66.14;102519.34;1817392;79;22258;-82
2021/03/30 04:31:18;;;;;;;17.25;10.98;;;;;;;2.86;66.20;102531.44;1817450;79;20951;-81
2021/03/30 04:33:46;;;;;;;17.48;12.07;;;;;;;2.97;65.86;102523.70;1817304;77;21022;-82
2021/03/30 04:36:14;;;;;;;18.85;12.15;;;;;;;3.08;65.37;102521.99;1817425;77;20919;-81
2021/03/30 04:38:42;;;;;;;21.50;12.82;;;;;;;3.18;65.33;102529.78;1817332;79;20879;-81
2021/03/30 04:41:10;;;;;;;20.97;12.37;;;;;;;3.40;64.72;102527.67;1817213;77;21334;-81
2021/03/30 04:43:41;;;;;;;20.00;11.93;;;;;;;3.75;64.15;102531.97;1817184;77;20938;-81
2021/03/30 04:46:11;;;;;;;19.73;11.18;;;;;;;4.15;63.19;102539.25;1817383;78;21010;-81
2021/03/30 04:48:39;;;;;;;16.77;11.18;;;;;;;4.56;61.90;102541.32;1817308;77;21361;-81
2021/03/30 04:51:07;;;;;;;23.60;12.15;;;;;;;5.04;60.93;102540.62;1817332;79;20966;-81
2021/03/30 04:53:35;;;;;;;20.08;10.48;;;;;;;5.58;59.73;102542.44;1817274;77;21357;-81
2021/03/30 04:56:04;;;;;;;15.55;10.78;;;;;;;6.13;57.93;102537.61;1817173;79;21148;-81
2021/03/30 04:58:34;;;;;;;23.07;10.53;;;;;;;6.68;56.79;102539.58;1817249;79;20950;-82
2021/03/30 05:01:04;;;;;;;20.35;10.75;;;;;;;7.17;55.34;102540.20;1817155;78;20883;-83
2021/03/30 05:03:32;;;;;;;15.68;10.53;;;;;;;7.68;53.67;102549.39;1817321;79;20938;-80
2021/03/30 05:06:07;;;;;;;23.20;10.63;;;;;;;8.13;52.06;102550.36;1817225;77;21360;-83
2021/03/30 05:08:35;;;;;;;;;;;;;;;8.52;50.96;102537.00;1819929;78;21475;-82
2021/03/30 05:11:03;;;;;;;18.70;10.90;;;;;;;8.96;49.80;102548.70;1817266;78;20394;-82
2021/03/30 05:13:33;;;;;;;19.45;10.80;;;;;;;9.27;48.76;102539.70;1817212;79;20918;-76
2021/03/30 05:16:01;;;;;;;22.60;11.18;;;;;;;9.58;47.82;102536.34;1817235;79;20938;-80
2021/03/30 05:18:32;;;;;;;21.00;10.60;;;;;;;9.87;47.21;102535.59;1826601;78;21377;-81
2021/03/30 05:21:01;;;;;;;15.90;10.32;;;;;;;10.21;46.33;102534.70;1832296;78;20926;-80
2021/03/30 05:23:29;;;;;;;20.10;10.43;;;;;;;10.47;45.25;102543.16;1832326;78;21408;-80
2021/03/30 05:25:58;;;;;;;15.23;9.95;;;;;;;10.68;44.82;102541.70;1832232;77;20995;-82
2021/03/30 05:28:26;;;;;;;14.05;9.88;;;;;;;10.97;43.97;102542.13;1832239;78;20990;-80
2021/03/30 05:30:55;;;;;;;15.68;9.40;;;;;;;11.18;43.65;102534.91;1832307;78;21193;-80
2021/03/30 05:33:24;;;;;;;18.73;10.98;;;;;;;11.45;42.98;102541.92;1832300;78;20934;-81
2021/03/30 05:35:53;;;;;;;16.35;11.45;;;;;;;11.64;42.70;102544.34;1832024;78;20898;-82
2021/03/30 05:38:21;;;;;;;20.43;11.63;;;;;;;11.83;42.18;102539.34;1832190;77;20926;-82
2021/03/30 05:40:50;;;;;;;15.53;10.15;;;;;;;12.13;41.49;102547.09;1832398;78;21396;-80
2021/03/30 05:43:18;;;;;;;17.27;11.12;;;;;;;12.42;41.00;102542.94;1832257;78;21195;-80
2021/03/30 05:45:47;;;;;;;19.62;10.30;;;;;;;12.69;40.81;102550.72;1832196;77;21005;-81
2021/03/30 05:48:16;;;;;;;18.65;9.50;;;;;;;13.26;39.36;102545.41;1832199;78;20931;-81
2021/03/30 05:55:30;;;;;;;21.80;10.38;;;;;;;13.75;37.33;102543.02;1856834;77;20922;-81
2021/03/30 05:58:02;;;;;;;22.27;10.82;;;;;;;13.75;37.33;102543.02;1787053;80;21317;-80
2021/03/30 06:00:41;;;;;;;21.60;10.08;;;;;;;13.82;37.71;102551.06;1786553;80;20921;-82
2021/03/30 06:03:25;;;;;;;16.60;10.18;;;;;;;14.02;37.09;102558.97;1818703;78;21013;-79
2021/03/30 06:05:57;;;;;;;13.53;8.95;;;;;;;14.10;36.80;102554.23;1784684;80;20939;-83
2021/03/30 06:08:28;;;;;;;14.93;9.90;;;;;;;14.20;36.70;102553.34;1761498;81;20930;-80
2021/03/30 06:11:06;;;;;;;14.23;9.20;;;;;;;14.38;36.50;102546.86;1761441;81;21149;-83
2021/03/30 06:13:56;;;;;;;15.13;9.48;;;;;;;14.63;35.93;102555.42;1761414;81;21002;-81
2021/03/30 06:16:37;;;;;;;15.40;8.70;;;;;;;14.77;35.52;102559.20;1761403;81;20938;-83
2021/03/30 06:19:18;;;;;;;12.65;8.40;;;;;;;14.93;35.44;102564.16;1761255;81;20998;-84
2021/03/30 06:22:00;;;;;;;11.60;8.80;;;;;;;15.11;34.91;102563.73;1761422;81;20998;-80
2021/03/30 06:24:31;;;;;;;15.10;8.75;;;;;;;15.26;34.59;102559.51;1734500;81;21373;-82
2021/03/30 06:27:09;;;;;;;17.65;8.95;;;;;;;15.32;34.54;102558.74;1761297;81;20998;-80
2021/03/30 06:29:39;;;;;;;16.82;8.40;;;;;;;15.51;34.56;102556.03;1761416;81;21646;-80
2021/03/30 06:32:12;;;;;;;14.05;9.38;;;;;;;15.76;33.51;102562.77;1761528;81;21595;-82
2021/03/30 06:34:43;;;;;;;18.87;9.68;;;;;;;15.72;33.64;102556.80;1761469;81;20930;-81
2021/03/30 06:37:36;;;;;;;14.05;7.37;;;;;;;15.89;33.88;102560.36;1761506;81;21010;-72
2021/03/30 06:40:27;;;;;;;10.70;8.75;;;;;;;16.04;33.78;102557.39;1761351;81;21377;-73
2021/03/30 06:44:24;;;;;;;13.20;9.03;;;;;;;16.21;33.12;102565.31;1761410;81;21400;-71
2021/03/30 06:45:41;;;;;;;18.92;10.03;;;;;;;16.22;32.59;102557.74;1757212;81;21508;-72
2021/03/30 06:48:10;;;;;;;12.43;8.00;;;;;;;16.00;33.06;102558.01;1761424;81;20998;-71
2021/03/30 06:50:38;;;;;;;11.03;8.53;;;;;;;15.99;32.93;102564.73;1729634;81;22296;-72
2021/03/30 06:56:24;;;;;;;16.23;7.55;;;;;;;16.27;32.54;102568.94;1867685;75;23154;-73
2021/03/30 06:59:22;;;;;;;14.20;7.97;;;;;;;16.22;32.71;102570.13;1836682;78;22727;-74
2021/03/30 07:01:56;;;;;;;17.05;8.35;;;;;;;16.32;32.56;102572.22;1804963;79;20942;-71
2021/03/30 07:04:24;;;;;;;12.50;8.78;;;;;;;16.48;32.48;102574.05;1809482;79;22280;-71
2021/03/30 07:06:53;;;;;;;10.78;8.85;;;;;;;16.58;32.07;102570.83;1809310;79;20959;-70
2021/03/30 07:09:22;;;;;;;16.25;8.15;;;;;;;16.58;31.98;102574.80;1809380;79;20994;-72
2021/03/30 07:11:50;;;;;;;12.68;7.65;;;;;;;16.54;32.32;102574.58;1809362;78;21030;-70
2021/03/30 07:14:20;;;;;;;8.35;6.80;;;;;;;16.72;32.32;102575.84;1808865;78;20998;-73
2021/03/30 07:16:53;;;;;;;8.33;6.67;;;;;;;16.95;31.50;102583.39;1809306;79;21053;-73
2021/03/30 07:19:24;;;;;;;13.80;7.42;;;;;;;17.00;31.30;102580.48;1809373;79;21373;-72
2021/03/30 07:22:05;;;;;;;16.32;7.22;;;;;;;16.99;31.09;102582.30;1809430;78;20979;-72
2021/03/30 07:24:42;;;;;;;9.18;7.03;;;;;;;16.85;31.53;102585.31;1807265;79;21030;-73
2021/03/30 07:27:17;;;;;;;8.70;6.97;;;;;;;16.82;31.55;102582.84;1809376;79;21014;-75
2021/03/30 07:29:47;;;;;;;8.45;6.85;;;;;;;16.87;30.92;102590.06;1809422;79;21345;-74
2021/03/30 07:32:43;;;;;;;12.30;7.10;;;;;;;16.89;31.02;102592.16;1809115;78;20954;-71
2021/03/30 07:35:18;;;;;;;7.50;6.80;;;;;;;16.96;31.00;102590.42;1809392;79;20935;-71
2021/03/30 07:37:54;;;;;;;9.18;7.78;;;;;;;17.23;30.90;102588.94;1809436;79;20935;-71
2021/03/30 07:40:23;;;;;;;10.75;7.00;;;;;;;17.29;30.96;102584.62;1809539;78;20903;-71
2021/03/30 07:42:52;;;;;;;8.83;6.62;;;;;;;17.42;30.83;102587.44;1809527;79;22685;-70
2021/03/30 07:45:24;;;;;;;10.80;6.75;;;;;;;17.61;30.51;102587.61;1809342;79;21033;-71
2021/03/30 07:47:52;;;;;;;11.22;7.03;;;;;;;17.80;30.23;102589.17;1809381;79;20931;-72
2021/03/30 07:50:23;;;;;;;8.28;5.90;;;;;;;18.05;29.99;102588.59;1778786;79;21014;-71
2021/03/30 07:52:52;;;;;;;8.83;6.67;;;;;;;18.18;28.91;102585.57;1809345;78;21010;-72
2021/03/30 07:55:27;;;;;;;8.23;7.03;;;;;;;18.16;29.31;102588.81;1809341;79;21355;-72
2021/03/30 07:58:12;;;;;;;7.70;6.92;;;;;;;18.29;29.16;102582.27;1811387;79;20913;-71
2021/03/30 08:00:46;;;;;;;7.90;6.03;;;;;;;18.50;28.83;102577.44;1815885;77;20951;-72
2021/03/30 08:03:23;;;;;;;8.00;6.08;;;;;;;18.77;27.85;102585.51;1815611;77;20979;-72
2021/03/30 08:06:12;;;;;;;8.08;7.20;;;;;;;18.62;28.18;102576.66;1813393;79;21013;-71
2021/03/30 08:08:55;;;;;;;10.03;6.28;;;;;;;18.54;28.10;102579.41;1815946;77;21567;-70
2021/03/30 08:11:46;;;;;;;7.42;6.20;;;;;;;18.62;28.08;102583.78;1815428;78;21523;-72
2021/03/30 08:14:36;;;;;;;9.33;6.53;;;;;;;18.80;27.49;102581.80;1815407;77;20923;-73
2021/03/30 08:17:12;;;;;;;12.63;6.62;;;;;;;18.89;27.33;102581.20;1815050;79;20931;-72
2021/03/30 08:19:59;;;;;;;8.50;5.62;;;;;;;18.99;27.43;102578.83;1815338;79;20998;-72
2021/03/30 08:22:44;;;;;;;8.98;5.10;;;;;;;19.25;27.48;102579.32;1815418;78;22274;-73
2021/03/30 08:25:24;;;;;;;6.72;6.05;;;;;;;19.60;27.19;102575.27;1812444;79;21452;-71
2021/03/30 08:27:53;;;;;;;9.38;5.20;;;;;;;19.80;26.82;102574.80;1815321;79;20943;-73
2021/03/30 08:30:38;;;;;;;5.10;4.60;;;;;;;19.74;25.10;102565.88;1815430;78;21022;-72
2021/03/30 08:33:06;;;;;;;6.20;4.42;;;;;;;19.51;25.71;102555.44;1815319;77;21488;-72
2021/03/30 08:35:38;;;;;;;5.90;4.90;;;;;;;19.56;25.96;102561.78;1815417;77;21317;-73
2021/03/30 08:38:07;;;;;;;5.47;4.22;;;;;;;19.61;25.02;102559.20;1815197;79;20946;-74
2021/03/30 08:40:39;;;;;;;7.12;4.35;;;;;;;19.35;25.56;102552.11;1786350;79;20938;-74
2021/03/30 08:43:20;;;;;;;;;;;;;;;19.31;26.14;102550.59;1817887;77;20911;-73
2021/03/30 08:46:12;;;;;;;5.53;4.15;;;;;;;19.53;25.73;102558.00;1815321;79;20129;-73
2021/03/30 08:48:52;;;;;;;7.53;4.53;;;;;;;19.55;25.65;102558.76;1815280;79;21178;-74
2021/03/30 08:51:22;;;;;;;7.87;4.50;;;;;;;19.58;24.94;102562.53;1815304;77;21034;-72
2021/03/30 08:53:53;;;;;;;9.28;3.98;;;;;;;19.39;24.91;102558.45;1815284;78;20986;-73
2021/03/30 08:56:28;;;;;;;10.58;3.85;;;;;;;19.04;25.32;102562.09;1815266;79;20987;-71
2021/03/30 08:58:57;;;;;;;4.55;4.03;;;;;;;18.75;25.93;102560.80;1815199;79;20926;-74
2021/03/30 09:01:25;;;;;;;5.47;3.87;;;;;;;18.87;25.59;102567.64;1815332;79;21354;-75
2021/03/30 09:03:55;;;;;;;6.62;3.55;;;;;;;18.90;25.32;102559.00;1815181;79;20943;-74
2021/03/30 09:06:34;;;;;;;5.72;4.17;;;;;;;18.95;24.52;102567.53;1786274;77;20954;-74
2021/03/30 09:09:00;;;;;;;5.37;3.77;;;;;;;18.92;25.03;102559.76;1815281;79;21038;-72
2021/03/30 09:11:36;;;;;;;7.20;4.58;;;;;;;18.90;25.72;102554.14;1815349;77;21459;-73
2021/03/30 09:14:08;;;;;;;4.55;4.15;;;;;;;19.13;25.78;102548.19;1815278;79;21809;-73
2021/03/30 09:16:38;;;;;;;5.87;3.72;;;;;;;19.34;25.62;102541.07;1815177;79;20927;-73
2021/03/30 09:22:25;;;;;;;5.37;3.65;;;;;;;19.46;24.92;102541.59;1890053;76;23157;-71
2021/03/30 09:25:06;;;;;;;5.30;3.87;;;;;;;19.39;25.11;102549.14;1861039;77;21041;-73
2021/03/30 09:27:34;;;;;;;5.55;3.45;;;;;;;19.50;25.36;102550.20;1859991;77;21350;-73
2021/03/30 09:30:14;;;;;;;7.35;4.03;;;;;;;19.71;24.85;102544.81;1860986;77;21029;-72
2021/03/30 09:32:44;;;;;;;4.95;4.03;;;;;;;19.68;25.11;102549.83;1860860;77;21040;-74
2021/03/30 09:35:22;;;;;;;4.87;4.37;;;;;;;19.41;25.23;102549.05;1860904;77;21455;-72
2021/03/30 09:38:01;;;;;;;5.28;3.87;;;;;;;18.87;25.55;102557.85;1861003;77;21309;-71
2021/03/30 09:40:34;;;;;;;4.25;3.83;;;;;;;18.59;25.90;102550.77;1861001;77;22265;-72
2021/03/30 09:43:06;;;;;;;;;;;;;;;18.36;26.71;102545.10;1863635;77;21025;-72
2021/03/30 09:45:36;;;;;;;4.70;4.17;;;;;;;18.08;27.37;102544.61;1860914;77;20153;-71
2021/03/30 09:48:07;;;;;;;5.12;4.25;;;;;;;17.83;27.31;102549.23;1860822;77;20930;-72
2021/03/30 09:50:37;;;;;;;6.70;4.60;;;;;;;17.73;28.06;102546.22;1828964;77;20958;-76
2021/03/30 09:53:07;;;;;;;4.25;3.95;;;;;;;17.58;28.10;102551.95;1829133;77;22236;-76
2021/03/30 09:55:46;;;;;;;8.23;4.22;;;;;;;17.45;28.73;102554.94;1860831;77;21416;-76
2021/03/30 09:58:17;;;;;;;5.00;3.95;;;;;;;17.55;29.04;102553.47;1860898;77;20965;-76
2021/03/30 10:00:49;;;;;;;4.58;3.58;;;;;;;17.75;28.67;102548.79;1860858;77;20993;-77
2021/03/30 10:03:17;;;;;;;3.85;3.42;;;;;;;17.85;28.17;102554.42;1860840;77;20958;-74
2021/03/30 10:05:46;;;;;;;4.20;3.80;;;;;;;18.01;27.40;102540.62;1860975;77;21404;-76
2021/03/30 10:08:21;;;;;;;5.95;4.10;;;;;;;17.97;28.09;102539.09;1860825;77;20958;-75
2021/03/30 10:10:54;;;;;;;4.03;3.08;;;;;;;17.94;27.57;102543.25;1860832;77;21034;-75
2021/03/30 10:13:28;;;;;;;4.30;3.22;;;;;;;17.90;27.67;102540.42;1860913;77;21587;-74
2021/03/30 10:16:01;;;;;;;3.98;3.62;;;;;;;17.89;27.19;102536.05;1860990;77;20993;-74
2021/03/30 10:18:29;;;;;;;4.40;3.60;;;;;;;17.74;27.78;102539.98;1861094;77;21434;-76
2021/03/30 10:21:11;;;;;;;10.38;4.10;;;;;;;17.69;28.03;102534.55;1859926;76;21515;-76
2021/03/30 10:23:43;;;;;;;4.47;3.70;;;;;;;17.67;28.13;102532.45;1858744;77;20918;-75
2021/03/30 10:26:18;;;;;;;4.72;4.35;;;;;;;17.48;28.25;102523.42;1858480;77;21009;-77
2021/03/30 10:29:01;;;;;;;4.72;3.80;;;;;;;17.33;28.95;102535.30;1858795;76;20895;-76
2021/03/30 10:34:27;;;;;;;6.87;4.30;;;;;;;17.83;28.42;102531.09;1858163;77;21036;-73
2021/03/30 10:36:57;;;;;;;5.60;3.58;;;;;;;17.80;27.40;102525.47;1858100;77;21014;-72
2021/03/30 10:39:41;;;;;;;3.60;3.30;;;;;;;17.71;27.71;102531.34;1858127;77;20930;-71
2021/03/30 10:42:12;;;;;;;5.10;3.20;;;;;;;17.64;27.67;102530.00;1858467;76;21340;-71
2021/03/30 10:44:44;;;;;;;5.67;2.72;;;;;;;17.68;27.60;102523.09;1858228;77;22207;-72
2021/03/30 10:47:17;;;;;;;8.18;3.42;;;;;;;17.81;27.39;102527.20;1858098;76;21010;-70
2021/03/30 10:49:47;;;;;;;7.58;3.77;;;;;;;17.73;27.38;102527.64;1858122;76;21037;-71
2021/03/30 10:52:18;;;;;;;3.55;3.02;;;;;;;17.72;27.09;102518.44;1858219;77;21427;-70
2021/03/30 10:54:48;;;;;;;8.80;4.42;;;;;;;17.80;27.18;102521.49;1858154;76;20997;-74
2021/03/30 10:57:19;;;;;;;3.62;3.33;;;;;;;17.93;26.67;102518.98;1858128;76;21354;-75
2021/03/30 10:59:47;;;;;;;3.77;3.25;;;;;;;17.97;27.16;102524.02;1857895;77;20965;-73
2021/03/30 11:02:17;;;;;;;4.15;3.75;;;;;;;17.69;27.06;102516.83;1858152;76;21416;-74
2021/03/30 11:04:45;;;;;;;3.37;3.15;;;;;;;17.07;27.23;102514.73;1858162;77;21002;-75
2021/03/30 11:07:13;;;;;;;3.25;2.95;;;;;;;16.56;27.94;102522.82;1858085;77;21033;-75
2021/03/30 11:09:43;;;;;;;3.12;2.70;;;;;;;16.06;28.94;102516.67;1858090;77;21802;-71
2021/03/30 11:12:12;;;;;;;4.25;2.87;;;;;;;15.63;29.30;102523.28;1857829;77;20931;-71
2021/03/30 11:14:41;;;;;;;3.08;2.87;;;;;;;15.36;29.96;102521.57;1858021;76;20950;-72
2021/03/30 11:17:09;;;;;;;4.30;2.95;;;;;;;15.28;30.84;102516.20;1858157;77;21440;-72
2021/03/30 11:19:39;;;;;;;2.72;2.52;;;;;;;15.35;30.66;102511.47;1858107;77;20910;-73
2021/03/30 11:22:11;;;;;;;2.83;2.58;;;;;;;15.57;30.66;102515.22;1859384;77;21356;-74
2021/03/30 11:24:42;;;;;;;3.45;2.85;;;;;;;15.67;29.76;102516.47;1860165;77;20957;-73
2021/03/30 11:27:13;;;;;;;4.05;3.33;;;;;;;15.83;29.67;102509.95;1860197;77;20930;-72
2021/03/30 11:29:49;;;;;;;5.50;3.25;;;;;;;15.83;29.60;102505.98;1860321;77;20938;-73
2021/03/30 11:32:28;;;;;;;3.12;2.92;;;;;;;15.60;29.05;102508.91;1859747;77;21001;-74
2021/03/30 11:39:56;;;;;;;3.22;2.50;;;;;;;14.43;30.62;102497.38;1860264;77;21444;-73
2021/03/30 11:42:25;;;;;;;3.40;3.10;;;;;;;14.25;30.38;102498.60;1860096;77;21076;-73
2021/03/30 11:44:53;;;;;;;3.92;3.62;;;;;;;14.12;31.20;102483.37;1860147;77;21029;-73
2021/03/30 11:47:21;;;;;;;5.95;4.28;;;;;;;13.88;31.65;102488.36;1860161;77;21128;-74
2021/03/30 11:49:54;;;;;;;6.30;3.72;;;;;;;13.64;31.66;102487.64;1860150;77;20942;-73
2021/03/30 11:52:22;;;;;;;5.50;4.00;;;;;;;13.41;31.96;102481.19;1860142;77;20938;-73
2021/03/30 11:54:51;;;;;;;4.15;3.85;;;;;;;13.21;32.30;102480.67;1860133;77;21361;-71
2021/03/30 11:57:20;;;;;;;4.08;3.67;;;;;;;13.04;32.78;102478.24;1860158;77;20934;-71
2021/03/30 11:59:49;;;;;;;3.77;3.47;;;;;;;12.78;33.45;102479.31;1860172;77;22435;-71
2021/03/30 12:02:17;;;;;;;5.40;4.17;;;;;;;12.61;33.83;102485.69;1827567;77;21415;-71
2021/03/30 12:04:46;;;;;;;6.10;4.67;;;;;;;12.41;33.94;102479.40;1860126;77;20946;-71